Jack Holland — WDF3615 — position and weather

sailwx.info

Track history (hours):
 
Tides and Currents Weather Stations Pressure Air Temp Water Temp Dewpoint Dewpoint Depression Visibility Wind Speed Wind Dir Waves Ship Positions

Jack Holland

Owner: Norfolk Tug Company, Norfolk, VA. More information available from US FCC via Universal Licensing System and Coast Guard Vessel Documentation Center.

Last reported at 2017-Aug-22 13:35 UTC. Time now 2017-Aug-22 14:39 UTC.
Position N 36°50' W 076°16'.

Length 22 m; draft 2.5 m.

Type: Tug. MMSI: 367442020.

Date/timePositionNaut miles runAvg speedWind from/ knotsBaromVisibWave heightAir tempDewpointWater temp
2017-Aug-22 13:35N 36°50' W 076°16'0 0.0
2017-Aug-22 13:21N 36°50' W 076°16'0 0.0
2017-Aug-22 12:58N 36°50' W 076°16'0 0.0
2017-Aug-22 11:56N 36°50' W 076°16'0 0.0
2017-Aug-22 07:37N 36°50' W 076°16'0 0.5
2017-Aug-22 07:30N 36°50' W 076°16'0 0.1
2017-Aug-22 07:00N 36°50' W 076°16'1 1.9
2017-Aug-22 06:30N 36°51' W 076°17'3 5.7
2017-Aug-22 06:01N 36°52' W 076°20'3 5.9
2017-Aug-22 05:28N 36°56' W 076°20'0 0.0
2017-Aug-20 20:59N 36°55' W 076°20'3 6.4
2017-Aug-20 20:30N 36°52' W 076°20'3 6.0
2017-Aug-20 20:00N 36°50' W 076°17'0 0.9
2017-Aug-20 19:31N 36°50' W 076°16'0 0.3
2017-Aug-20 19:00N 36°50' W 076°16'0 0.0
2017-Aug-20 18:30N 36°50' W 076°16'0 0.0
2017-Aug-20 18:00N 36°50' W 076°16'0 0.0
2017-Aug-20 17:31N 36°50' W 076°16'0 0.0
2017-Aug-20 17:00N 36°50' W 076°16'1 2.1
2017-Aug-20 16:30N 36°51' W 076°18'3 5.6
2017-Aug-20 16:01N 36°48' W 076°18'0 0.0
2017-Aug-20 15:31N 36°48' W 076°18'0 0.0
2017-Aug-20 15:01N 36°48' W 076°18'0 0.0
2017-Aug-20 14:31N 36°48' W 076°18'0 1.0
2017-Aug-20 14:01N 36°47' W 076°18'1 2.9
2017-Aug-20 13:31N 36°46' W 076°18'0 0.5
2017-Aug-20 13:01N 36°46' W 076°18'1 1.7
2017-Aug-20 12:31N 36°47' W 076°18'3 5.9
2017-Aug-20 12:00N 36°50' W 076°18'3 6.4
2017-Aug-20 11:30N 36°52' W 076°20'4 7.0
2017-Aug-20 10:58N 36°56' W 076°20'108 4.6
2017-Aug-19 11:26N 38°38' W 075°37'0 0.0
2017-Aug-19 10:44N 38°38' W 075°37'0 0.0
2017-Aug-19 10:26N 38°38' W 075°37'107 4.2
2017-Aug-18 08:46N 36°57' W 076°20'3 7.5
2017-Aug-18 08:26N 36°54' W 076°20'3 7.2
2017-Aug-18 08:01N 36°51' W 076°19'4 7.1
2017-Aug-18 07:30N 36°48' W 076°18'2 3.3
2017-Aug-18 07:00N 36°46' W 076°18'0 0.7
2017-Aug-18 06:31N 36°46' W 076°18'0 0.0
2017-Aug-18 06:00N 36°46' W 076°18'0 0.0
2017-Aug-18 05:30N 36°46' W 076°18'0 0.0
2017-Aug-18 05:01N 36°46' W 076°18'0 0.0
2017-Aug-18 04:30N 36°46' W 076°18'0 0.0
2017-Aug-18 04:00N 36°46' W 076°18'0 0.0
2017-Aug-18 03:31N 36°46' W 076°18'0 0.0
2017-Aug-18 03:01N 36°46' W 076°18'0 0.0
2017-Aug-18 02:31N 36°46' W 076°18'0 0.0
2017-Aug-18 02:01N 36°46' W 076°18'0 0.0
2017-Aug-18 01:31N 36°46' W 076°18'1 1.1
2017-Aug-18 01:01N 36°47' W 076°18'2 4.5
2017-Aug-18 00:30N 36°49' W 076°17'2 3.5
2017-Aug-18 00:00N 36°50' W 076°16'0 0.3
2017-Aug-17 23:31N 36°50' W 076°16'0 0.3
2017-Aug-17 23:00N 36°50' W 076°16'0 0.0
2017-Aug-17 22:30N 36°50' W 076°16'1 1.8
2017-Aug-17 22:00N 36°50' W 076°15'1 2.0
2017-Aug-17 21:31N 36°50' W 076°16'1 2.8
2017-Aug-17 21:00N 36°49' W 076°17'1 2.4
2017-Aug-17 20:31N 36°50' W 076°17'0 1.0
2017-Aug-17 20:01N 36°50' W 076°16'0 0.2
2017-Aug-17 19:30N 36°50' W 076°16'0 0.0
2017-Aug-17 19:00N 36°50' W 076°16'0 0.0
2017-Aug-17 18:30N 36°50' W 076°16'0 0.0
2017-Aug-17 18:00N 36°50' W 076°16'0 0.0
2017-Aug-17 17:30N 36°50' W 076°16'0 0.0
2017-Aug-17 17:00N 36°50' W 076°16'0 0.9
2017-Aug-17 16:31N 36°50' W 076°17'0 0.0
2017-Aug-17 16:01N 36°50' W 076°17'1 1.3
2017-Aug-17 15:31N 36°50' W 076°16'0 0.0
2017-Aug-17 15:00N 36°50' W 076°16'0 0.6
2017-Aug-17 14:30N 36°50' W 076°16'0 0.0
2017-Aug-17 14:00N 36°50' W 076°16'0 0.5
2017-Aug-17 13:30N 36°50' W 076°16'1 2.2
2017-Aug-17 13:00N 36°51' W 076°18'2 3.3
2017-Aug-17 12:30N 36°49' W 076°17'1 1.3
2017-Aug-17 12:00N 36°48' W 076°17'0 0.0
2017-Aug-17 11:30N 36°48' W 076°18'2 3.4
2017-Aug-17 11:00N 36°47' W 076°18'1 1.2
2017-Aug-17 10:30N 36°46' W 076°18'0 0.0
2017-Aug-17 10:00N 36°46' W 076°18'0 0.0
2017-Aug-17 09:31N 36°46' W 076°18'0 0.0
2017-Aug-17 09:00N 36°46' W 076°18'0 0.8
2017-Aug-17 08:30N 36°46' W 076°18'2 3.1
2017-Aug-17 08:01N 36°48' W 076°18'3 6.2
2017-Aug-17 07:30N 36°51' W 076°18'3 6.2
2017-Aug-17 07:00N 36°54' W 076°20'3 6.4
2017-Aug-17 06:31N 36°57' W 076°21'8 6.0
2017-Aug-17 05:12N 37°01' W 076°29'9 0.3
2017-Aug-15 21:55N 36°55' W 076°20'3 7.5
2017-Aug-15 21:30N 36°52' W 076°20'4 7.0
2017-Aug-15 21:00N 36°49' W 076°17'2 5.0
2017-Aug-15 20:31N 36°46' W 076°18'0 0.8
2017-Aug-15 20:01N 36°46' W 076°18'0 0.0
2017-Aug-15 19:31N 36°46' W 076°18'0 0.0
2017-Aug-15 19:00N 36°46' W 076°18'0 0.0
2017-Aug-15 18:30N 36°46' W 076°18'0 0.0
2017-Aug-15 18:00N 36°46' W 076°18'0 0.0
2017-Aug-15 17:31N 36°46' W 076°18'0 0.0
2017-Aug-15 17:00N 36°46' W 076°18'0 0.0
2017-Aug-15 16:30N 36°46' W 076°18'0 0.0
2017-Aug-15 16:00N 36°46' W 076°18'0 0.0
2017-Aug-15 15:30N 36°46' W 076°18'0 0.0
2017-Aug-15 15:00N 36°46' W 076°18'0 0.0
2017-Aug-15 14:30N 36°46' W 076°18'0 0.0
2017-Aug-15 14:00N 36°46' W 076°18'0 0.0
2017-Aug-15 13:31N 36°46' W 076°18'0 0.0
2017-Aug-15 13:00N 36°46' W 076°18'0 0.0
2017-Aug-15 12:30N 36°46' W 076°18'0 0.0
2017-Aug-15 12:00N 36°46' W 076°18'0 0.0
2017-Aug-15 11:31N 36°46' W 076°18'0 0.0
2017-Aug-15 11:00N 36°46' W 076°18'0 0.0
2017-Aug-15 10:30N 36°46' W 076°18'0 0.0
2017-Aug-15 10:01N 36°46' W 076°18'0 0.1
2017-Aug-15 09:30N 36°46' W 076°18'1 1.2
2017-Aug-15 09:01N 36°47' W 076°18'2 3.4
2017-Aug-15 08:31N 36°48' W 076°17'3 5.7
2017-Aug-15 08:00N 36°51' W 076°18'3 5.8
2017-Aug-15 07:31N 36°54' W 076°20'2 0.1
2017-Aug-13 14:30N 36°56' W 076°20'4 7.2
2017-Aug-13 14:00N 36°52' W 076°20'4 7.0
2017-Aug-13 13:31N 36°50' W 076°16'0 0.6
2017-Aug-13 13:00N 36°50' W 076°17'2 4.5
2017-Aug-13 12:30N 36°48' W 076°17'0 0.9
2017-Aug-13 12:00N 36°48' W 076°18'0 0.0
2017-Aug-13 11:30N 36°48' W 076°18'0 0.0
2017-Aug-13 11:00N 36°48' W 076°18'3 5.5
2017-Aug-13 10:30N 36°51' W 076°18'1 2.1
2017-Aug-13 10:00N 36°50' W 076°16'0 0.0
2017-Aug-13 09:30N 36°50' W 076°16'0 0.0
2017-Aug-13 09:00N 36°50' W 076°16'0 0.0
2017-Aug-13 08:30N 36°50' W 076°16'0 0.0
2017-Aug-13 08:00N 36°50' W 076°16'0 0.0
2017-Aug-13 07:30N 36°50' W 076°16'0 0.0
2017-Aug-13 07:00N 36°50' W 076°16'0 0.0
2017-Aug-13 06:30N 36°50' W 076°16'  
Track history (hours):
 
Tides and Currents Weather Stations Pressure Air Temp Water Temp Dewpoint Dewpoint Depression Visibility Wind Speed Wind Dir Waves Ship Positions

Jack Holland

Owner: Norfolk Tug Company, Norfolk, VA. More information available from US FCC via Universal Licensing System and Coast Guard Vessel Documentation Center.

Last reported at 2017-Aug-22 13:35 UTC. Time now 2017-Aug-22 14:39 UTC.
Position N 36°50' W 076°16'.

Length 22 m; draft 2.5 m.

Type: Tug. MMSI: 367442020.

Date/timePositionNaut miles runAvg speedWind from/ knotsBaromVisibWave heightAir tempDewpointWater temp
2017-Aug-22 13:35N 36°50' W 076°16'0 0.0
2017-Aug-22 13:21N 36°50' W 076°16'0 0.0
2017-Aug-22 12:58N 36°50' W 076°16'0 0.0
2017-Aug-22 11:56N 36°50' W 076°16'0 0.0
2017-Aug-22 07:37N 36°50' W 076°16'0 0.5
2017-Aug-22 07:30N 36°50' W 076°16'0 0.1
2017-Aug-22 07:00N 36°50' W 076°16'1 1.9
2017-Aug-22 06:30N 36°51' W 076°17'3 5.7
2017-Aug-22 06:01N 36°52' W 076°20'3 5.9
2017-Aug-22 05:28N 36°56' W 076°20'0 0.0
2017-Aug-20 20:59N 36°55' W 076°20'3 6.4
2017-Aug-20 20:30N 36°52' W 076°20'3 6.0
2017-Aug-20 20:00N 36°50' W 076°17'0 0.9
2017-Aug-20 19:31N 36°50' W 076°16'0 0.3
2017-Aug-20 19:00N 36°50' W 076°16'0 0.0
2017-Aug-20 18:30N 36°50' W 076°16'0 0.0
2017-Aug-20 18:00N 36°50' W 076°16'0 0.0
2017-Aug-20 17:31N 36°50' W 076°16'0 0.0
2017-Aug-20 17:00N 36°50' W 076°16'1 2.1
2017-Aug-20 16:30N 36°51' W 076°18'3 5.6
2017-Aug-20 16:01N 36°48' W 076°18'0 0.0
2017-Aug-20 15:31N 36°48' W 076°18'0 0.0
2017-Aug-20 15:01N 36°48' W 076°18'0 0.0
2017-Aug-20 14:31N 36°48' W 076°18'0 1.0
2017-Aug-20 14:01N 36°47' W 076°18'1 2.9
2017-Aug-20 13:31N 36°46' W 076°18'0 0.5
2017-Aug-20 13:01N 36°46' W 076°18'1 1.7
2017-Aug-20 12:31N 36°47' W 076°18'3 5.9
2017-Aug-20 12:00N 36°50' W 076°18'3 6.4
2017-Aug-20 11:30N 36°52' W 076°20'4 7.0
2017-Aug-20 10:58N 36°56' W 076°20'108 4.6
2017-Aug-19 11:26N 38°38' W 075°37'0 0.0
2017-Aug-19 10:44N 38°38' W 075°37'0 0.0
2017-Aug-19 10:26N 38°38' W 075°37'107 4.2
2017-Aug-18 08:46N 36°57' W 076°20'3 7.5
2017-Aug-18 08:26N 36°54' W 076°20'3 7.2
2017-Aug-18 08:01N 36°51' W 076°19'4 7.1
2017-Aug-18 07:30N 36°48' W 076°18'2 3.3
2017-Aug-18 07:00N 36°46' W 076°18'0 0.7
2017-Aug-18 06:31N 36°46' W 076°18'0 0.0
2017-Aug-18 06:00N 36°46' W 076°18'0 0.0
2017-Aug-18 05:30N 36°46' W 076°18'0 0.0
2017-Aug-18 05:01N 36°46' W 076°18'0 0.0
2017-Aug-18 04:30N 36°46' W 076°18'0 0.0
2017-Aug-18 04:00N 36°46' W 076°18'0 0.0
2017-Aug-18 03:31N 36°46' W 076°18'0 0.0
2017-Aug-18 03:01N 36°46' W 076°18'0 0.0
2017-Aug-18 02:31N 36°46' W 076°18'0 0.0
2017-Aug-18 02:01N 36°46' W 076°18'0 0.0
2017-Aug-18 01:31N 36°46' W 076°18'1 1.1
2017-Aug-18 01:01N 36°47' W 076°18'2 4.5
2017-Aug-18 00:30N 36°49' W 076°17'2 3.5
2017-Aug-18 00:00N 36°50' W 076°16'0 0.3
2017-Aug-17 23:31N 36°50' W 076°16'0 0.3
2017-Aug-17 23:00N 36°50' W 076°16'0 0.0
2017-Aug-17 22:30N 36°50' W 076°16'1 1.8
2017-Aug-17 22:00N 36°50' W 076°15'1 2.0
2017-Aug-17 21:31N 36°50' W 076°16'1 2.8
2017-Aug-17 21:00N 36°49' W 076°17'1 2.4
2017-Aug-17 20:31N 36°50' W 076°17'0 1.0
2017-Aug-17 20:01N 36°50' W 076°16'0 0.2
2017-Aug-17 19:30N 36°50' W 076°16'0 0.0
2017-Aug-17 19:00N 36°50' W 076°16'0 0.0
2017-Aug-17 18:30N 36°50' W 076°16'0 0.0
2017-Aug-17 18:00N 36°50' W 076°16'0 0.0
2017-Aug-17 17:30N 36°50' W 076°16'0 0.0
2017-Aug-17 17:00N 36°50' W 076°16'0 0.9
2017-Aug-17 16:31N 36°50' W 076°17'0 0.0
2017-Aug-17 16:01N 36°50' W 076°17'1 1.3
2017-Aug-17 15:31N 36°50' W 076°16'0 0.0
2017-Aug-17 15:00N 36°50' W 076°16'0 0.6
2017-Aug-17 14:30N 36°50' W 076°16'0 0.0
2017-Aug-17 14:00N 36°50' W 076°16'0 0.5
2017-Aug-17 13:30N 36°50' W 076°16'1 2.2
2017-Aug-17 13:00N 36°51' W 076°18'2 3.3
2017-Aug-17 12:30N 36°49' W 076°17'1 1.3
2017-Aug-17 12:00N 36°48' W 076°17'0 0.0
2017-Aug-17 11:30N 36°48' W 076°18'2 3.4
2017-Aug-17 11:00N 36°47' W 076°18'1 1.2
2017-Aug-17 10:30N 36°46' W 076°18'0 0.0
2017-Aug-17 10:00N 36°46' W 076°18'0 0.0
2017-Aug-17 09:31N 36°46' W 076°18'0 0.0
2017-Aug-17 09:00N 36°46' W 076°18'0 0.8
2017-Aug-17 08:30N 36°46' W 076°18'2 3.1
2017-Aug-17 08:01N 36°48' W 076°18'3 6.2
2017-Aug-17 07:30N 36°51' W 076°18'3 6.2
2017-Aug-17 07:00N 36°54' W 076°20'3 6.4
2017-Aug-17 06:31N 36°57' W 076°21'8 6.0
2017-Aug-17 05:12N 37°01' W 076°29'9 0.3
2017-Aug-15 21:55N 36°55' W 076°20'3 7.5
2017-Aug-15 21:30N 36°52' W 076°20'4 7.0
2017-Aug-15 21:00N 36°49' W 076°17'2 5.0
2017-Aug-15 20:31N 36°46' W 076°18'0 0.8
2017-Aug-15 20:01N 36°46' W 076°18'0 0.0
2017-Aug-15 19:31N 36°46' W 076°18'0 0.0
2017-Aug-15 19:00N 36°46' W 076°18'0 0.0
2017-Aug-15 18:30N 36°46' W 076°18'0 0.0
2017-Aug-15 18:00N 36°46' W 076°18'0 0.0
2017-Aug-15 17:31N 36°46' W 076°18'0 0.0
2017-Aug-15 17:00N 36°46' W 076°18'0 0.0
2017-Aug-15 16:30N 36°46' W 076°18'0 0.0
2017-Aug-15 16:00N 36°46' W 076°18'0 0.0
2017-Aug-15 15:30N 36°46' W 076°18'0 0.0
2017-Aug-15 15:00N 36°46' W 076°18'0 0.0
2017-Aug-15 14:30N 36°46' W 076°18'0 0.0
2017-Aug-15 14:00N 36°46' W 076°18'0 0.0
2017-Aug-15 13:31N 36°46' W 076°18'0 0.0
2017-Aug-15 13:00N 36°46' W 076°18'0 0.0
2017-Aug-15 12:30N 36°46' W 076°18'0 0.0
2017-Aug-15 12:00N 36°46' W 076°18'0 0.0
2017-Aug-15 11:31N 36°46' W 076°18'0 0.0
2017-Aug-15 11:00N 36°46' W 076°18'0 0.0
2017-Aug-15 10:30N 36°46' W 076°18'0 0.0
2017-Aug-15 10:01N 36°46' W 076°18'0 0.1
2017-Aug-15 09:30N 36°46' W 076°18'1 1.2
2017-Aug-15 09:01N 36°47' W 076°18'2 3.4
2017-Aug-15 08:31N 36°48' W 076°17'3 5.7
2017-Aug-15 08:00N 36°51' W 076°18'3 5.8
2017-Aug-15 07:31N 36°54' W 076°20'2 0.1
2017-Aug-13 14:30N 36°56' W 076°20'4 7.2
2017-Aug-13 14:00N 36°52' W 076°20'4 7.0
2017-Aug-13 13:31N 36°50' W 076°16'0 0.6
2017-Aug-13 13:00N 36°50' W 076°17'2 4.5
2017-Aug-13 12:30N 36°48' W 076°17'0 0.9
2017-Aug-13 12:00N 36°48' W 076°18'0 0.0
2017-Aug-13 11:30N 36°48' W 076°18'0 0.0
2017-Aug-13 11:00N 36°48' W 076°18'3 5.5
2017-Aug-13 10:30N 36°51' W 076°18'1 2.1
2017-Aug-13 10:00N 36°50' W 076°16'0 0.0
2017-Aug-13 09:30N 36°50' W 076°16'0 0.0
2017-Aug-13 09:00N 36°50' W 076°16'0 0.0
2017-Aug-13 08:30N 36°50' W 076°16'0 0.0
2017-Aug-13 08:00N 36°50' W 076°16'0 0.0
2017-Aug-13 07:30N 36°50' W 076°16'0 0.0
2017-Aug-13 07:00N 36°50' W 076°16'0 0.0
2017-Aug-13 06:30N 36°50' W 076°16'  

Dump ship's entire track history